Accueil
METAR-TAF:

METAR-TAF

Aéroports :

Siegen, Allemagne

latitude: 50-42-28N, longitude: 008-04-59E, altitude: 602 m

Observation

Le bulletin a été fait il y a 25 minutes, à 06:50 UTC
Vent 15 kt de sud-est
Température 2°C
Humidité 100%
Pression 1027 hPa
Visibilité: 1600 m
Nuages fragmentés à une hauteur de 200 ft
brume

METAR: EDGS 160650Z 14015KT 1600 BR BKN002 02/02 Q1027

Heure: 08:15 (07:15 UTC)

Prévision

Le bulletin a été fait il y a 14 heures et 15 minutes, à 17:00 UTC
Prévision valable du 15 à 18 UTC au 16 à 03 UTC
Vent 10 kt de sud-est
Visibilité: 0200 m
Ciel couvert à une hauteur inférieure à 100 ft
brouillard

TAF: EDGS 151700Z 1518/1603 13010KT 0200 FG OVC000

Observations et prévisions météorologiques de plus de 4000 aéroports (messages METAR et TAF).

Les stations disponibles sont représentées par des disques jaunes et rouges sur la carte.

Passer la souris dessus pour voir le nom de la station.

Cliquer dessus pour voir les observations et prévisions météorologiques.

Pour changer de carte: cliquez sur les boutons verts avec une croix noire pour zoomer, sur le bouton vert avec un tiret pour effectuer un zoom arrière, ou sur les flèches vertes pour les cartes adjacentes.


METAR-TAF: